• Join FlightAware (Why Join?)
  • Login
  • US Flag 
06:38AM EDT


 

Airport Tracker/Info


-or-


 

Live Flight TrackerFlight Track Log ✈ SWA1377 ✈ 19-May-2013 ✈ KBUF - KBWI

Flight Track Log - Related Links

Times and Time Zones

All times are in EDT time to prevent confusion due to time zone crossing. See the SWA1377 flight status page for this flight to view local times or setup timezone preferences in your user account.

Time Position Orientation Groundspeed Altitude Reporting Facility
EDT Latitude Longitude Course Direction KTS MPH feet Rate Location/Type
12:30PM 42.8089 -78.7833 193° South 273 314 7,200  Level Cleveland Center
12:31PM 42.7356 -78.7628 168° South 289 333 10,900 3,000 Climbing Cleveland Center
12:32PM 42.6456 -78.7428 171° South 297 342 13,200 2,700 Climbing Cleveland Center
12:33PM 42.5453 -78.7203 171° South 339 390 16,400 3,000 Climbing Cleveland Center
12:34PM 42.4406 -78.6953 170° South 370 426 19,200 3,000 Climbing Cleveland Center
12:35PM 42.3317 -78.6647 168° South 391 450 22,400 1,860 Climbing Cleveland Center
12:36PM 42.2425 -78.5694 142° Southeast 391 450 23,000 300 Climbing Cleveland Center
12:37PM 42.1553 -78.4628 138° Southeast 433 498 23,000  Level Cleveland Center
12:38PM 42.0592 -78.3486 139° Southeast 448 516 23,000  Level Cleveland Center
12:39PM 41.9608 -78.2319 139° Southeast 462 532 23,000  Level Cleveland Center
12:40PM 41.8628 -78.1183 139° Southeast 467 537 23,000  Level Cleveland Center
12:41PM 41.7664 -78.0053 139° Southeast 467 537 23,000  Level Cleveland Center
12:42PM 41.6489 -77.8669 139° Southeast 468 539 23,000  Level New York Center
12:43PM 41.5517 -77.7511 138° Southeast 468 539 23,000  Level New York Center
12:44PM 41.4519 -77.6383 140° Southeast 468 539 23,000 -60 Level New York Center
12:45PM 41.3544 -77.5233 138° Southeast 468 539 22,900 -540 Descending New York Center
12:46PM 41.2564 -77.4142 140° Southeast 474 545 21,900 -900 Descending New York Center
12:47PM 41.1681 -77.3144 140° Southeast 474 545 21,100 -960 Descending New York Center
12:48PM 41.0681 -77.2031 140° Southeast 474 545 20,100 -960 Descending New York Center
12:49PM 40.9700 -77.0892 139° Southeast 474 545 19,200 -1,080 Descending New York Center
12:50PM 40.8736 -76.9786 139° Southeast 474 545 18,000 -600 Descending New York Center
12:51PM 40.7789 -76.8742 140° Southeast 423 487 18,000 -120 Level New York Center
12:52PM 40.7025 -76.7797 137° Southeast 389 448 17,800 -540 Descending New York Center
12:53PM 40.6319 -76.6942 137° Southeast 382 440 17,000 -600 Descending New York Center
12:54PM 40.5494 -76.5917 137° Southeast 382 440 16,700 -600 Descending New York Center
12:55PM 40.4903 -76.4803 125° Southeast 372 428 15,800 -900 Descending New York Center
12:56PM 40.4308 -76.3717 126° Southeast 372 428 15,000 -360 Descending New York Center
12:57PM 40.3600 -76.2786 135° Southeast 364 419 15,100 -60 Climbing New York Center
12:58PM 40.2617 -76.2872 184° South 339 390 14,900 -600 Descending New York Center
12:59PM 40.1658 -76.2903 181° South 350 403 14,000 -1,140 Descending New York Center
01:00PM 40.0758 -76.2942 182° South 337 388 12,700 -600 Descending New York Center
01:03PM 39.8833 -76.2000 159° South 291 335 12,000 -240 Descending Potomac TRACON
01:04PM 39.8167 -76.2333 201° Southwest 286 329 12,000  Level Potomac TRACON
01:05PM 39.7500 -76.2833 210° Southwest 283 326 12,000 -420 Level Potomac TRACON
01:06PM 39.6667 -76.3333 205° Southwest 287 330 11,200 -1,080 Descending Potomac TRACON
01:07PM 39.6333 -76.4000 237° Southwest 285 328 10,000 -660 Descending Potomac TRACON
01:08PM 39.6167 -76.5000 258° West 266 306 10,000  Level Potomac TRACON
01:09PM 39.6167 -76.5833 270° West 265 305 10,000 -480 Level Potomac TRACON
01:10PM 39.6167 -76.7000 270° West 271 312 9,100 -1,140 Descending Potomac TRACON
01:11PM 39.6167 -76.7833 270° West 264 304 7,800 -1,200 Descending Potomac TRACON
01:11PM 39.6167 -76.8667 270° West 264 304 6,900 -840 Descending Potomac TRACON
01:13PM 39.6000 -76.9500 255° West 239 275 6,200 -480 Descending Potomac TRACON
01:14PM 39.5500 -76.9333 166° South 212 244 6,000 -420 Descending Potomac TRACON
01:14PM 39.5000 -76.9167 166° South 214 246 5,500 -780 Descending Potomac TRACON
01:15PM 39.4500 -76.8833 153° Southeast 210 242 4,600 -840 Descending Potomac TRACON
01:16PM 39.4000 -76.8667 166° South 206 237 4,000 -360 Descending Potomac TRACON
01:17PM 39.3500 -76.8333 153° Southeast 185 213 4,000 -420 Level Potomac TRACON
01:18PM 39.3000 -76.8000 153° Southeast 173 199 3,200 -960 Descending Potomac TRACON
01:19PM 39.2667 -76.7500 131° Southeast 180 207 2,100 -960 Descending Potomac TRACON
01:20PM 39.2333 -76.7167 142° Southeast 147 169 1,300 -840 Descending Potomac TRACON